Time,TemperatureF,DewpointF,PressureIn,WindDirection,WindDirectionDegrees,WindSpeedMPH,WindSpeedGustMPH,Humidity,HourlyPrecipIn,Conditions,Clouds,dailyrainin,SoftwareType,DateUTC
2013-04-20 00:01:00,67.9,61.9,29.64,SSW,194,11.0,16.0,81,0.00,,,0.00,Wunderground v.1.15,2013-04-20 04:01:00,
2013-04-20 00:02:00,67.9,61.9,29.63,SSE,157,0.0,16.0,81,0.00,,,0.00,Wunderground v.1.15,2013-04-20 04:02:00,
2013-04-20 00:07:00,67.9,61.9,29.64,South,175,4.0,16.0,81,0.00,,,0.00,Wunderground v.1.15,2013-04-20 04:07:00,
2013-04-20 00:12:00,67.9,61.9,29.65,SSW,213,12.0,16.0,81,0.00,,,0.00,Wunderground v.1.15,2013-04-20 04:12:00,
2013-04-20 00:17:00,67.9,61.9,29.64,SW,217,8.0,24.0,81,0.00,,,0.00,Wunderground v.1.15,2013-04-20 04:17:00,
2013-04-20 00:22:00,67.9,61.9,29.64,SSW,194,3.0,19.0,81,0.00,,,0.00,Wunderground v.1.15,2013-04-20 04:22:00,
2013-04-20 00:27:00,67.8,61.8,29.64,SSW,194,5.0,19.0,81,0.00,,,0.00,Wunderground v.1.15,2013-04-20 04:27:00,
2013-04-20 00:32:00,67.5,62.2,29.64,West,259,13.0,16.0,83,0.00,,,0.00,Wunderground v.1.15,2013-04-20 04:32:00,
2013-04-20 00:37:00,66.8,62.1,29.65,SW,217,8.0,16.0,85,0.00,,,0.01,Wunderground v.1.15,2013-04-20 04:37:00,
2013-04-20 00:42:00,66.2,61.9,29.64,SW,227,1.0,11.0,86,0.08,,,0.02,Wunderground v.1.15,2013-04-20 04:42:00,
2013-04-20 00:47:00,65.7,62.0,29.65,SSW,210,6.0,11.0,88,0.08,,,0.02,Wunderground v.1.15,2013-04-20 04:47:00,
2013-04-20 00:49:00,65.6,61.9,29.64,SSW,198,1.0,11.0,88,0.08,,,0.03,Wunderground v.1.15,2013-04-20 04:49:00,
2013-04-20 00:53:00,65.3,62.0,29.65,SSW,201,5.0,9.0,89,0.08,,,0.03,Wunderground v.1.15,2013-04-20 04:53:00,
2013-04-20 00:58:00,64.9,61.9,29.63,SSE,165,4.0,9.0,90,0.07,,,0.04,Wunderground v.1.15,2013-04-20 04:58:00,
2013-04-20 01:03:00,64.7,61.7,29.64,SSW,194,2.0,7.0,90,0.07,,,0.04,Wunderground v.1.15,2013-04-20 05:03:00,
2013-04-20 01:09:00,64.6,61.9,29.64,SSW,213,10.0,10.0,91,0.08,,,0.05,Wunderground v.1.15,2013-04-20 05:09:00,
2013-04-20 01:14:00,64.4,61.7,29.63,South,173,5.0,5.0,91,0.06,,,0.05,Wunderground v.1.15,2013-04-20 05:14:00,
2013-04-20 01:20:00,64.4,61.7,29.64,SW,227,0.0,4.0,91,0.06,,,0.06,Wunderground v.1.15,2013-04-20 05:20:00,
2013-04-20 01:25:00,64.3,61.9,29.63,South,186,0.0,6.0,92,0.06,,,0.06,Wunderground v.1.15,2013-04-20 05:25:00,
2013-04-20 01:31:00,64.2,61.8,29.63,South,186,7.0,7.0,92,0.05,,,0.07,Wunderground v.1.15,2013-04-20 05:31:00,
2013-04-20 01:36:00,64.2,61.8,29.63,SW,229,5.0,7.0,92,0.05,,,0.07,Wunderground v.1.15,2013-04-20 05:36:00,
2013-04-20 01:42:00,64.1,61.7,29.63,SSW,212,0.0,6.0,92,0.04,,,0.08,Wunderground v.1.15,2013-04-20 05:42:00,
2013-04-20 01:47:00,64.1,61.7,29.63,SSW,198,0.0,6.0,92,0.04,,,0.08,Wunderground v.1.15,2013-04-20 05:47:00,
2013-04-20 01:53:00,64.0,61.6,29.63,WSW,237,0.0,7.0,92,0.05,,,0.09,Wunderground v.1.15,2013-04-20 05:53:00,
2013-04-20 01:58:00,64.0,61.6,29.63,SW,221,2.0,7.0,92,0.05,,,0.09,Wunderground v.1.15,2013-04-20 05:58:00,
2013-04-20 02:04:00,64.0,61.6,29.63,South,188,3.0,5.0,92,0.05,,,0.09,Wunderground v.1.15,2013-04-20 06:04:00,
2013-04-20 02:09:00,63.9,61.5,29.62,South,178,2.0,5.0,92,0.04,,,0.10,Wunderground v.1.15,2013-04-20 06:09:00,
2013-04-20 02:15:00,63.8,61.4,29.62,South,190,3.0,3.0,92,0.04,,,0.10,Wunderground v.1.15,2013-04-20 06:15:00,
2013-04-20 02:20:00,63.8,61.4,29.62,South,190,0.0,1.0,92,0.04,,,0.10,Wunderground v.1.15,2013-04-20 06:20:00,
2013-04-20 02:26:00,63.7,61.3,29.61,SSW,203,0.0,3.0,92,0.04,,,0.11,Wunderground v.1.15,2013-04-20 06:26:00,
2013-04-20 02:31:00,63.6,61.2,29.61,SSW,201,0.0,3.0,92,0.04,,,0.11,Wunderground v.1.15,2013-04-20 06:31:00,
2013-04-20 02:37:00,63.6,61.2,29.61,South,179,2.0,6.0,92,0.04,,,0.12,Wunderground v.1.15,2013-04-20 06:37:00,
2013-04-20 02:42:00,63.5,61.1,29.62,West,265,3.0,4.0,92,0.04,,,0.12,Wunderground v.1.15,2013-04-20 06:42:00,
2013-04-20 02:48:00,61.8,58.8,29.63,WNW,292,12.0,12.0,90,0.06,,,0.13,Wunderground v.1.15,2013-04-20 06:48:00,
2013-04-20 02:53:00,60.1,57.2,29.63,WNW,295,5.0,7.0,90,0.06,,,0.13,Wunderground v.1.15,2013-04-20 06:53:00,
2013-04-20 02:59:00,59.0,56.1,29.63,WSW,254,0.0,7.0,90,0.05,,,0.14,Wunderground v.1.15,2013-04-20 06:59:00,
2013-04-20 03:04:00,59.0,56.4,29.63,West,279,3.0,5.0,91,0.05,,,0.14,Wunderground v.1.15,2013-04-20 07:04:00,
2013-04-20 03:09:00,58.6,56.0,29.64,WNW,300,3.0,11.0,91,0.05,,,0.15,Wunderground v.1.15,2013-04-20 07:09:00,
2013-04-20 03:14:00,58.4,55.8,29.64,NW,306,3.0,7.0,91,0.05,,,0.15,Wunderground v.1.15,2013-04-20 07:14:00,
2013-04-20 03:19:00,57.5,54.6,29.64,NNW,327,12.0,14.0,90,0.05,,,0.15,Wunderground v.1.15,2013-04-20 07:19:00,
2013-04-20 03:24:00,56.7,53.8,29.64,NW,325,6.0,15.0,90,0.04,,,0.15,Wunderground v.1.15,2013-04-20 07:24:00,
2013-04-20 03:29:00,56.1,53.2,29.64,North,355,5.0,15.0,90,0.00,,,0.16,Wunderground v.1.15,2013-04-20 07:29:00,
2013-04-20 03:34:00,55.9,53.0,29.64,WNW,288,6.0,10.0,90,0.00,,,0.16,Wunderground v.1.15,2013-04-20 07:34:00,
2013-04-20 03:39:00,55.4,52.2,29.64,North,355,6.0,12.0,89,0.00,,,0.16,Wunderground v.1.15,2013-04-20 07:39:00,
2013-04-20 03:44:00,54.6,51.4,29.64,NNW,331,5.0,13.0,89,0.00,,,0.16,Wunderground v.1.15,2013-04-20 07:44:00,
2013-04-20 03:49:00,53.9,50.7,29.65,NNW,327,12.0,13.0,89,0.00,,,0.16,Wunderground v.1.15,2013-04-20 07:49:00,
2013-04-20 03:54:00,53.3,49.8,29.65,NNW,346,4.0,13.0,88,0.00,,,0.17,Wunderground v.1.15,2013-04-20 07:54:00,
2013-04-20 03:59:00,53.1,49.6,29.66,NNW,331,3.0,13.0,88,0.00,,,0.17,Wunderground v.1.15,2013-04-20 07:59:00,
2013-04-20 04:04:00,52.8,49.3,29.66,NNW,339,12.0,12.0,88,0.00,,,0.17,Wunderground v.1.15,2013-04-20 08:04:00,
2013-04-20 04:09:00,52.6,49.1,29.67,NW,319,4.0,13.0,88,0.00,,,0.17,Wunderground v.1.15,2013-04-20 08:09:00,
2013-04-20 04:14:00,52.3,48.9,29.68,WNW,302,5.0,12.0,88,0.00,,,0.17,Wunderground v.1.15,2013-04-20 08:14:00,
2013-04-20 04:19:00,52.1,48.7,29.67,NW,310,6.0,12.0,88,0.00,,,0.17,Wunderground v.1.15,2013-04-20 08:19:00,
2013-04-20 04:24:00,51.7,48.3,29.67,NNW,340,4.0,8.0,88,0.00,,,0.18,Wunderground v.1.15,2013-04-20 08:24:00,
2013-04-20 04:29:00,51.5,48.1,29.67,North,355,4.0,8.0,88,0.00,,,0.18,Wunderground v.1.15,2013-04-20 08:29:00,
2013-04-20 04:34:00,51.3,47.9,29.67,North,355,2.0,5.0,88,0.00,,,0.18,Wunderground v.1.15,2013-04-20 08:34:00,
2013-04-20 04:39:00,51.1,47.7,29.67,NNW,344,2.0,6.0,88,0.00,,,0.18,Wunderground v.1.15,2013-04-20 08:39:00,
2013-04-20 04:44:00,51.0,47.9,29.67,WNW,296,2.0,7.0,89,0.00,,,0.18,Wunderground v.1.15,2013-04-20 08:44:00,
2013-04-20 04:49:00,50.9,47.8,29.67,NW,309,5.0,7.0,89,0.00,,,0.19,Wunderground v.1.15,2013-04-20 08:49:00,
2013-04-20 04:54:00,50.8,47.7,29.68,NW,321,1.0,11.0,89,0.00,,,0.19,Wunderground v.1.15,2013-04-20 08:54:00,
2013-04-20 04:59:00,50.7,47.6,29.70,West,263,4.0,11.0,89,0.00,,,0.19,Wunderground v.1.15,2013-04-20 08:59:00,
2013-04-20 05:04:00,50.6,47.5,29.70,WSW,250,5.0,7.0,89,0.00,,,0.19,Wunderground v.1.15,2013-04-20 09:04:00,
2013-04-20 05:09:00,50.4,47.3,29.69,NW,310,4.0,9.0,89,0.00,,,0.19,Wunderground v.1.15,2013-04-20 09:09:00,
2013-04-20 05:14:00,50.4,47.6,29.69,North,5,6.0,7.0,90,0.00,,,0.19,Wunderground v.1.15,2013-04-20 09:14:00,
2013-04-20 05:19:00,50.2,47.4,29.68,NW,310,0.0,7.0,90,0.00,,,0.19,Wunderground v.1.15,2013-04-20 09:19:00,
2013-04-20 05:24:00,50.1,47.3,29.69,NE,45,4.0,8.0,90,0.00,,,0.19,Wunderground v.1.15,2013-04-20 09:24:00,
2013-04-20 05:29:00,49.6,46.8,29.69,NNW,340,2.0,8.0,90,0.00,,,0.20,Wunderground v.1.15,2013-04-20 09:29:00,
2013-04-20 05:34:00,49.2,46.4,29.70,North,5,2.0,6.0,90,0.00,,,0.20,Wunderground v.1.15,2013-04-20 09:34:00,
2013-04-20 05:39:00,48.8,46.0,29.70,NNE,13,1.0,9.0,90,0.00,,,0.20,Wunderground v.1.15,2013-04-20 09:39:00,
2013-04-20 05:44:00,48.4,45.6,29.68,NNE,30,3.0,8.0,90,0.00,,,0.20,Wunderground v.1.15,2013-04-20 09:44:00,
2013-04-20 05:49:00,48.1,45.3,29.69,NNW,332,3.0,8.0,90,0.00,,,0.20,Wunderground v.1.15,2013-04-20 09:49:00,
2013-04-20 05:54:00,48.0,45.2,29.70,NW,326,4.0,5.0,90,0.00,,,0.21,Wunderground v.1.15,2013-04-20 09:54:00,
2013-04-20 05:59:00,47.8,45.0,29.71,NW,324,2.0,7.0,90,0.00,,,0.21,Wunderground v.1.15,2013-04-20 09:59:00,
2013-04-20 06:04:00,47.8,45.3,29.72,WNW,295,1.0,6.0,91,0.00,,,0.21,Wunderground v.1.15,2013-04-20 10:04:00,
2013-04-20 06:09:00,47.9,45.4,29.74,WNW,288,0.0,6.0,91,0.00,,,0.21,Wunderground v.1.15,2013-04-20 10:09:00,
2013-04-20 06:14:00,48.0,45.5,29.74,WNW,290,1.0,6.0,91,0.00,,,0.21,Wunderground v.1.15,2013-04-20 10:14:00,
2013-04-20 06:19:00,47.9,45.4,29.74,WNW,298,6.0,10.0,91,0.00,,,0.22,Wunderground v.1.15,2013-04-20 10:19:00,
2013-04-20 06:24:00,47.5,44.7,29.74,NNE,12,6.0,11.0,90,0.00,,,0.22,Wunderground v.1.15,2013-04-20 10:24:00,
2013-04-20 06:29:00,47.3,44.5,29.74,NW,311,6.0,11.0,90,0.00,,,0.22,Wunderground v.1.15,2013-04-20 10:29:00,
2013-04-20 06:34:00,47.2,44.4,29.74,NW,313,0.0,7.0,90,0.00,,,0.22,Wunderground v.1.15,2013-04-20 10:34:00,
2013-04-20 06:39:00,47.1,44.3,29.74,NW,309,3.0,7.0,90,0.00,,,0.23,Wunderground v.1.15,2013-04-20 10:39:00,
2013-04-20 06:44:00,47.0,44.2,29.74,NNW,334,5.0,10.0,90,0.00,,,0.23,Wunderground v.1.15,2013-04-20 10:44:00,
2013-04-20 06:49:00,47.0,44.2,29.75,West,275,6.0,10.0,90,0.00,,,0.23,Wunderground v.1.15,2013-04-20 10:49:00,
2013-04-20 06:54:00,47.0,44.2,29.75,NW,318,4.0,7.0,90,0.00,,,0.23,Wunderground v.1.15,2013-04-20 10:54:00,
2013-04-20 06:59:00,47.0,44.2,29.76,NW,309,3.0,7.0,90,0.00,,,0.23,Wunderground v.1.15,2013-04-20 10:59:00,
2013-04-20 07:04:00,47.1,44.3,29.76,WNW,292,4.0,5.0,90,0.00,,,0.23,Wunderground v.1.15,2013-04-20 11:04:00,
2013-04-20 07:09:00,47.2,44.7,29.77,WNW,295,6.0,6.0,91,0.00,,,0.23,Wunderground v.1.15,2013-04-20 11:09:00,
2013-04-20 07:14:00,47.3,44.8,29.77,WNW,302,6.0,10.0,91,0.00,,,0.24,Wunderground v.1.15,2013-04-20 11:14:00,
2013-04-20 07:19:00,47.2,44.4,29.78,NW,305,4.0,10.0,90,0.00,,,0.24,Wunderground v.1.15,2013-04-20 11:19:00,
2013-04-20 07:24:00,47.0,44.2,29.78,West,275,4.0,7.0,90,0.00,,,0.24,Wunderground v.1.15,2013-04-20 11:24:00,
2013-04-20 07:29:00,46.9,44.1,29.79,WNW,282,8.0,9.0,90,0.00,,,0.24,Wunderground v.1.15,2013-04-20 11:29:00,
2013-04-20 07:34:00,46.8,44.0,29.78,WNW,295,4.0,12.0,90,0.00,,,0.24,Wunderground v.1.15,2013-04-20 11:34:00,
2013-04-20 07:39:00,46.9,44.1,29.79,West,268,6.0,12.0,90,0.00,,,0.25,Wunderground v.1.15,2013-04-20 11:39:00,
2013-04-20 07:44:00,46.8,44.0,29.80,WNW,288,3.0,11.0,90,0.00,,,0.25,Wunderground v.1.15,2013-04-20 11:44:00,
2013-04-20 07:49:00,46.6,43.5,29.80,NW,307,7.0,13.0,89,0.00,,,0.25,Wunderground v.1.15,2013-04-20 11:49:00,
2013-04-20 07:55:00,46.3,42.9,29.80,WNW,287,4.0,14.0,88,0.00,,,0.25,Wunderground v.1.15,2013-04-20 11:55:00,
2013-04-20 08:00:00,46.1,42.7,29.80,West,271,4.0,7.0,88,0.00,,,0.25,Wunderground v.1.15,2013-04-20 12:00:00,
2013-04-20 08:05:00,45.9,42.2,29.81,NW,305,7.0,13.0,87,0.00,,,0.25,Wunderground v.1.15,2013-04-20 12:05:00,
2013-04-20 08:10:00,45.7,41.8,29.80,West,267,7.0,8.0,86,0.00,,,0.25,Wunderground v.1.15,2013-04-20 12:10:00,
2013-04-20 08:15:00,45.6,41.4,29.80,WNW,288,6.0,12.0,85,0.00,,,0.25,Wunderground v.1.15,2013-04-20 12:15:00,
2013-04-20 08:20:00,45.5,40.9,29.82,WNW,296,3.0,5.0,84,0.00,,,0.26,Wunderground v.1.15,2013-04-20 12:20:00,
2013-04-20 08:25:00,45.6,41.0,29.81,West,273,4.0,9.0,84,0.00,,,0.26,Wunderground v.1.15,2013-04-20 12:25:00,
2013-04-20 08:30:00,45.6,40.7,29.81,West,272,4.0,5.0,83,0.00,,,0.26,Wunderground v.1.15,2013-04-20 12:30:00,
2013-04-20 08:35:00,45.8,40.9,29.82,West,269,4.0,7.0,83,0.00,,,0.26,Wunderground v.1.15,2013-04-20 12:35:00,
2013-04-20 08:40:00,45.8,40.6,29.82,WNW,295,3.0,4.0,82,0.00,,,0.26,Wunderground v.1.15,2013-04-20 12:40:00,
2013-04-20 08:45:00,46.0,40.5,29.82,WNW,287,8.0,13.0,81,0.00,,,0.26,Wunderground v.1.15,2013-04-20 12:45:00,
2013-04-20 08:50:00,46.1,40.3,29.81,West,259,4.0,10.0,80,0.00,,,0.26,Wunderground v.1.15,2013-04-20 12:50:00,
2013-04-20 08:55:00,46.2,39.7,29.81,WNW,303,12.0,14.0,78,0.00,,,0.27,Wunderground v.1.15,2013-04-20 12:55:00,
2013-04-20 09:00:00,46.3,39.8,29.81,WNW,300,5.0,10.0,78,0.00,,,0.27,Wunderground v.1.15,2013-04-20 13:00:00,
2013-04-20 09:05:00,46.7,39.9,29.81,WNW,300,5.0,14.0,77,0.00,,,0.27,Wunderground v.1.15,2013-04-20 13:05:00,
2013-04-20 09:10:00,47.0,39.8,29.81,WNW,303,6.0,9.0,76,0.00,,,0.27,Wunderground v.1.15,2013-04-20 13:10:00,
2013-04-20 09:15:00,47.1,39.6,29.81,West,280,7.0,11.0,75,0.00,,,0.27,Wunderground v.1.15,2013-04-20 13:15:00,
2013-04-20 09:20:00,47.3,39.8,29.81,WNW,291,5.0,7.0,75,0.00,,,0.27,Wunderground v.1.15,2013-04-20 13:20:00,
2013-04-20 09:25:00,47.5,40.0,29.81,WNW,296,9.0,10.0,75,0.00,,,0.28,Wunderground v.1.15,2013-04-20 13:25:00,
2013-04-20 09:30:00,47.9,40.4,29.81,NW,312,10.0,10.0,75,0.00,,,0.28,Wunderground v.1.15,2013-04-20 13:30:00,
2013-04-20 09:35:00,48.2,39.9,29.81,NW,305,7.0,15.0,73,0.00,,,0.28,Wunderground v.1.15,2013-04-20 13:35:00,
2013-04-20 09:40:00,48.3,40.0,29.81,West,267,4.0,7.0,73,0.00,,,0.28,Wunderground v.1.15,2013-04-20 13:40:00,
2013-04-20 09:45:00,48.4,39.8,29.81,NW,321,12.0,13.0,72,0.00,,,0.28,Wunderground v.1.15,2013-04-20 13:45:00,
2013-04-20 09:50:00,48.3,39.0,29.82,NW,308,10.0,10.0,70,0.00,,,0.28,Wunderground v.1.15,2013-04-20 13:50:00,
2013-04-20 09:55:00,48.5,39.2,29.82,NW,317,4.0,12.0,70,0.00,,,0.29,Wunderground v.1.15,2013-04-20 13:55:00,
2013-04-20 10:00:00,48.7,40.1,29.82,WNW,290,9.0,10.0,72,0.00,,,0.29,Wunderground v.1.15,2013-04-20 14:00:00,
2013-04-20 10:05:00,49.2,40.2,29.82,WNW,292,13.0,13.0,71,0.00,,,0.29,Wunderground v.1.15,2013-04-20 14:05:00,
2013-04-20 10:10:00,49.8,40.0,29.83,WNW,299,2.0,6.0,69,0.00,,,0.29,Wunderground v.1.15,2013-04-20 14:10:00,
2013-04-20 10:15:00,50.3,40.5,29.83,WSW,251,7.0,10.0,69,0.00,,,0.29,Wunderground v.1.15,2013-04-20 14:15:00,
2013-04-20 10:20:00,50.7,39.7,29.83,West,281,4.0,5.0,66,0.00,,,0.29,Wunderground v.1.15,2013-04-20 14:20:00,
2013-04-20 10:25:00,51.1,39.3,29.83,West,277,6.0,15.0,64,0.00,,,0.29,Wunderground v.1.15,2013-04-20 14:25:00,
2013-04-20 10:30:00,51.6,40.6,29.83,West,266,5.0,7.0,66,0.00,,,0.29,Wunderground v.1.15,2013-04-20 14:30:00,
2013-04-20 10:35:00,52.0,41.0,29.83,WNW,291,11.0,11.0,66,0.00,,,0.29,Wunderground v.1.15,2013-04-20 14:35:00,
2013-04-20 10:40:00,52.3,41.3,29.84,West,276,10.0,11.0,66,0.00,,,0.30,Wunderground v.1.15,2013-04-20 14:40:00,
2013-04-20 10:45:00,52.3,40.1,29.84,WNW,283,4.0,12.0,63,0.00,,,0.30,Wunderground v.1.15,2013-04-20 14:45:00,
2013-04-20 10:50:00,52.7,39.6,29.85,West,279,10.0,12.0,61,0.00,,,0.30,Wunderground v.1.15,2013-04-20 14:50:00,
2013-04-20 10:55:00,52.8,38.4,29.85,NW,304,23.0,23.0,58,0.00,,,0.30,Wunderground v.1.15,2013-04-20 14:55:00,
2013-04-20 11:00:00,52.5,38.6,29.85,West,264,9.0,11.0,59,0.00,,,0.30,Wunderground v.1.15,2013-04-20 15:00:00,
2013-04-20 11:05:00,52.4,37.2,29.85,SW,232,6.0,18.0,56,0.00,,,0.30,Wunderground v.1.15,2013-04-20 15:05:00,
2013-04-20 11:10:00,52.7,38.8,29.86,WNW,286,5.0,8.0,59,0.00,,,0.30,Wunderground v.1.15,2013-04-20 15:10:00,
2013-04-20 11:15:00,52.9,37.6,29.86,West,279,14.0,20.0,56,0.00,,,0.30,Wunderground v.1.15,2013-04-20 15:15:00,
2013-04-20 11:20:00,52.9,39.0,29.86,West,259,3.0,8.0,59,0.00,,,0.31,Wunderground v.1.15,2013-04-20 15:20:00,
2013-04-20 11:25:00,53.0,38.2,29.86,WNW,300,11.0,13.0,57,0.00,,,0.31,Wunderground v.1.15,2013-04-20 15:25:00,
2013-04-20 11:30:00,53.1,38.3,29.86,West,275,6.0,7.0,57,0.00,,,0.31,Wunderground v.1.15,2013-04-20 15:30:00,
2013-04-20 11:35:00,53.3,38.9,29.86,WNW,294,6.0,13.0,58,0.00,,,0.31,Wunderground v.1.15,2013-04-20 15:35:00,
2013-04-20 11:40:00,53.5,38.6,29.86,NW,326,4.0,10.0,57,0.00,,,0.31,Wunderground v.1.15,2013-04-20 15:40:00,
2013-04-20 11:45:00,53.5,38.2,29.87,WSW,256,2.0,17.0,56,0.00,,,0.31,Wunderground v.1.15,2013-04-20 15:45:00,
2013-04-20 11:50:00,53.7,39.3,29.87,WSW,241,5.0,9.0,58,0.00,,,0.31,Wunderground v.1.15,2013-04-20 15:50:00,
2013-04-20 11:55:00,54.0,38.2,29.87,WNW,292,11.0,17.0,55,0.00,,,0.31,Wunderground v.1.15,2013-04-20 15:55:00,
2013-04-20 12:00:00,54.2,38.4,29.87,WNW,283,1.0,8.0,55,0.00,,,0.31,Wunderground v.1.15,2013-04-20 16:00:00,
2013-04-20 12:05:00,54.3,38.0,29.87,WNW,299,11.0,17.0,54,0.00,,,0.31,Wunderground v.1.15,2013-04-20 16:05:00,
2013-04-20 12:10:00,54.7,38.4,29.88,West,265,5.0,8.0,54,0.00,,,0.31,Wunderground v.1.15,2013-04-20 16:10:00,
2013-04-20 12:15:00,55.1,36.8,29.87,West,281,2.0,10.0,50,0.00,,,0.31,Wunderground v.1.15,2013-04-20 16:15:00,
2013-04-20 12:20:00,55.2,37.9,29.87,West,277,10.0,10.0,52,0.00,,,0.31,Wunderground v.1.15,2013-04-20 16:20:00,
2013-04-20 12:25:00,55.3,37.5,29.87,NW,310,7.0,18.0,51,0.00,,,0.31,Wunderground v.1.15,2013-04-20 16:25:00,
2013-04-20 12:30:00,55.5,37.7,29.87,WNW,286,10.0,13.0,51,0.00,,,0.31,Wunderground v.1.15,2013-04-20 16:30:00,
2013-04-20 12:35:00,55.0,35.1,29.88,WSW,252,5.0,23.0,47,0.00,,,0.32,Wunderground v.1.15,2013-04-20 16:35:00,
2013-04-20 12:40:00,54.8,36.5,29.88,WNW,292,13.0,13.0,50,0.00,,,0.32,Wunderground v.1.15,2013-04-20 16:40:00,
2013-04-20 12:45:00,54.9,36.1,29.88,West,277,7.0,17.0,49,0.00,,,0.32,Wunderground v.1.15,2013-04-20 16:45:00,
2013-04-20 12:50:00,54.8,36.0,29.88,NW,304,12.0,14.0,49,0.00,,,0.32,Wunderground v.1.15,2013-04-20 16:50:00,
2013-04-20 12:55:00,54.6,36.3,29.88,SW,225,5.0,20.0,50,0.00,,,0.32,Wunderground v.1.15,2013-04-20 16:55:00,
2013-04-20 13:00:00,54.7,36.4,29.88,NW,309,12.0,16.0,50,0.00,,,0.32,Wunderground v.1.15,2013-04-20 17:00:00,
2013-04-20 13:05:00,54.5,34.7,29.88,WSW,257,12.0,19.0,47,0.00,,,0.32,Wunderground v.1.15,2013-04-20 17:05:00,
2013-04-20 13:10:00,54.5,35.7,29.88,NW,310,5.0,19.0,49,0.00,,,0.32,Wunderground v.1.15,2013-04-20 17:10:00,
2013-04-20 13:15:00,54.4,35.1,29.88,SSW,192,17.0,20.0,48,0.00,,,0.32,Wunderground v.1.15,2013-04-20 17:15:00,
2013-04-20 13:20:00,54.6,36.3,29.88,WNW,288,6.0,11.0,50,0.00,,,0.32,Wunderground v.1.15,2013-04-20 17:20:00,
2013-04-20 13:25:00,55.2,35.8,29.88,WNW,286,4.0,25.0,48,0.00,,,0.32,Wunderground v.1.15,2013-04-20 17:25:00,
2013-04-20 13:30:00,55.1,36.3,29.88,WNW,302,4.0,11.0,49,0.00,,,0.32,Wunderground v.1.15,2013-04-20 17:30:00,
2013-04-20 13:35:00,55.1,35.7,29.88,WSW,257,7.0,19.0,48,0.00,,,0.32,Wunderground v.1.15,2013-04-20 17:35:00,
2013-04-20 13:40:00,55.1,35.2,29.88,West,271,11.0,11.0,47,0.00,,,0.32,Wunderground v.1.15,2013-04-20 17:40:00,
2013-04-20 13:45:00,55.9,36.5,29.88,West,273,12.0,19.0,48,0.00,,,0.32,Wunderground v.1.15,2013-04-20 17:45:00,
2013-04-20 13:50:00,56.1,35.0,29.88,West,268,11.0,13.0,45,0.00,,,0.32,Wunderground v.1.15,2013-04-20 17:50:00,
2013-04-20 13:55:00,56.0,35.5,29.88,WNW,303,12.0,21.0,46,0.00,,,0.32,Wunderground v.1.15,2013-04-20 17:55:00,
2013-04-20 14:00:00,56.2,34.0,29.88,NW,314,6.0,16.0,43,0.00,,,0.32,Wunderground v.1.15,2013-04-20 18:00:00,
2013-04-20 14:05:00,56.2,33.4,29.89,NW,311,6.0,16.0,42,0.00,,,0.32,Wunderground v.1.15,2013-04-20 18:05:00,
2013-04-20 14:10:00,56.3,35.2,29.89,WNW,288,11.0,13.0,45,0.00,,,0.33,Wunderground v.1.15,2013-04-20 18:10:00,
2013-04-20 14:15:00,56.6,34.9,29.89,West,277,2.0,15.0,44,0.00,,,0.33,Wunderground v.1.15,2013-04-20 18:15:00,
2013-04-20 14:20:00,56.6,34.9,29.89,West,281,0.0,15.0,44,0.00,,,0.33,Wunderground v.1.15,2013-04-20 18:20:00,
2013-04-20 14:25:00,56.3,33.5,29.89,WNW,302,11.0,21.0,42,0.00,,,0.33,Wunderground v.1.15,2013-04-20 18:25:00,
2013-04-20 14:30:00,55.7,33.5,29.90,WNW,284,5.0,12.0,43,0.00,,,0.33,Wunderground v.1.15,2013-04-20 18:30:00,
2013-04-20 14:35:00,55.5,35.0,29.90,WSW,253,11.0,15.0,46,0.00,,,0.33,Wunderground v.1.15,2013-04-20 18:35:00,
2013-04-20 14:40:00,55.3,34.9,29.90,WNW,286,13.0,15.0,46,0.00,,,0.33,Wunderground v.1.15,2013-04-20 18:40:00,
2013-04-20 14:45:00,55.1,34.1,29.90,NW,311,5.0,16.0,45,0.00,,,0.33,Wunderground v.1.15,2013-04-20 18:45:00,
2013-04-20 14:50:00,55.1,34.1,29.90,NNW,329,7.0,11.0,45,0.00,,,0.33,Wunderground v.1.15,2013-04-20 18:50:00,
2013-04-20 14:55:00,55.2,34.8,29.90,WNW,298,5.0,16.0,46,0.00,,,0.33,Wunderground v.1.15,2013-04-20 18:55:00,
2013-04-20 15:00:00,55.8,34.2,29.91,NW,304,12.0,15.0,44,0.00,,,0.33,Wunderground v.1.15,2013-04-20 19:00:00,
2013-04-20 15:05:00,56.4,35.3,29.91,WNW,288,6.0,15.0,45,0.00,,,0.33,Wunderground v.1.15,2013-04-20 19:05:00,
2013-04-20 15:10:00,56.7,35.0,29.90,SW,228,11.0,11.0,44,0.00,,,0.33,Wunderground v.1.15,2013-04-20 19:10:00,
2013-04-20 15:15:00,56.0,34.9,29.91,NW,305,11.0,16.0,45,0.00,,,0.33,Wunderground v.1.15,2013-04-20 19:15:00,
2013-04-20 15:20:00,55.7,35.2,29.90,SSW,192,3.0,11.0,46,0.00,,,0.33,Wunderground v.1.15,2013-04-20 19:20:00,
2013-04-20 15:25:00,55.3,34.9,29.91,WSW,241,5.0,17.0,46,0.00,,,0.33,Wunderground v.1.15,2013-04-20 19:25:00,
2013-04-20 15:30:00,55.1,34.1,29.91,WSW,242,5.0,14.0,45,0.00,,,0.33,Wunderground v.1.15,2013-04-20 19:30:00,
2013-04-20 15:35:00,54.8,34.4,29.91,West,273,3.0,14.0,46,0.00,,,0.33,Wunderground v.1.15,2013-04-20 19:35:00,
2013-04-20 15:40:00,54.9,34.5,29.91,NW,319,4.0,6.0,46,0.00,,,0.33,Wunderground v.1.15,2013-04-20 19:40:00,
2013-04-20 15:45:00,55.6,34.0,29.91,NNW,331,12.0,16.0,44,0.00,,,0.33,Wunderground v.1.15,2013-04-20 19:45:00,
2013-04-20 15:50:00,56.2,34.0,29.92,WNW,287,4.0,8.0,43,0.00,,,0.33,Wunderground v.1.15,2013-04-20 19:50:00,
2013-04-20 15:55:00,56.5,34.3,29.92,WNW,294,13.0,15.0,43,0.00,,,0.33,Wunderground v.1.15,2013-04-20 19:55:00,
2013-04-20 16:00:00,56.4,33.0,29.92,WNW,283,5.0,11.0,41,0.00,,,0.33,Wunderground v.1.15,2013-04-20 20:00:00,
2013-04-20 16:05:00,56.3,33.5,29.92,West,281,6.0,23.0,42,0.00,,,0.33,Wunderground v.1.15,2013-04-20 20:05:00,
2013-04-20 16:10:00,56.1,33.9,29.92,WSW,246,2.0,9.0,43,0.00,,,0.33,Wunderground v.1.15,2013-04-20 20:10:00,
2013-04-20 16:15:00,56.0,33.2,29.92,NW,309,4.0,16.0,42,0.00,,,0.33,Wunderground v.1.15,2013-04-20 20:15:00,
2013-04-20 16:20:00,55.9,33.1,29.93,WSW,244,11.0,12.0,42,0.00,,,0.33,Wunderground v.1.15,2013-04-20 20:20:00,
2013-04-20 16:25:00,55.9,34.3,29.93,WNW,291,3.0,14.0,44,0.00,,,0.33,Wunderground v.1.15,2013-04-20 20:25:00,
2013-04-20 16:30:00,56.2,33.4,29.94,West,265,3.0,14.0,42,0.00,,,0.33,Wunderground v.1.15,2013-04-20 20:30:00,
2013-04-20 16:35:00,56.5,33.7,29.94,West,267,8.0,14.0,42,0.00,,,0.33,Wunderground v.1.15,2013-04-20 20:35:00,
2013-04-20 16:40:00,56.8,34.5,29.94,WNW,298,6.0,7.0,43,0.00,,,0.33,Wunderground v.1.15,2013-04-20 20:40:00,
2013-04-20 16:45:00,56.9,32.8,29.95,WNW,289,1.0,16.0,40,0.00,,,0.33,Wunderground v.1.15,2013-04-20 20:45:00,
2013-04-20 16:51:00,56.9,34.0,29.95,WNW,285,4.0,15.0,42,0.00,,,0.33,Wunderground v.1.15,2013-04-20 20:51:00,
2013-04-20 16:55:00,56.9,32.8,29.95,WNW,294,7.0,17.0,40,0.00,,,0.33,Wunderground v.1.15,2013-04-20 20:55:00,
2013-04-20 17:01:00,56.9,32.8,29.95,WNW,296,11.0,18.0,40,0.00,,,0.33,Wunderground v.1.15,2013-04-20 21:01:00,
2013-04-20 17:06:00,57.4,33.3,29.96,West,280,4.0,18.0,40,0.00,,,0.33,Wunderground v.1.15,2013-04-20 21:06:00,
2013-04-20 17:11:00,57.3,33.2,29.96,WNW,287,10.0,16.0,40,0.00,,,0.33,Wunderground v.1.15,2013-04-20 21:11:00,
2013-04-20 17:16:00,57.2,33.1,29.96,WNW,287,9.0,23.0,40,0.00,,,0.33,Wunderground v.1.15,2013-04-20 21:16:00,
2013-04-20 17:21:00,57.2,31.8,29.97,WNW,282,15.0,15.0,38,0.00,,,0.33,Wunderground v.1.15,2013-04-20 21:21:00,
2013-04-20 17:26:00,56.6,31.3,29.97,West,276,21.0,21.0,38,0.00,,,0.33,Wunderground v.1.15,2013-04-20 21:26:00,
2013-04-20 17:31:00,56.5,31.8,29.97,WNW,283,5.0,11.0,39,0.00,,,0.33,Wunderground v.1.15,2013-04-20 21:31:00,
2013-04-20 17:36:00,56.7,32.0,29.98,NW,306,4.0,15.0,39,0.00,,,0.33,Wunderground v.1.15,2013-04-20 21:36:00,
2013-04-20 17:41:00,56.6,31.9,29.98,NW,304,10.0,15.0,39,0.00,,,0.33,Wunderground v.1.15,2013-04-20 21:41:00,
2013-04-20 17:46:00,56.5,31.2,29.98,WSW,245,4.0,17.0,38,0.00,,,0.33,Wunderground v.1.15,2013-04-20 21:46:00,
2013-04-20 17:51:00,56.4,32.4,29.98,West,270,11.0,14.0,40,0.00,,,0.33,Wunderground v.1.15,2013-04-20 21:51:00,
2013-04-20 17:56:00,56.0,31.4,29.99,NW,309,12.0,17.0,39,0.00,,,0.33,Wunderground v.1.15,2013-04-20 21:56:00,
2013-04-20 18:01:00,56.0,31.4,29.99,WNW,283,14.0,15.0,39,0.00,,,0.33,Wunderground v.1.15,2013-04-20 22:01:00,
2013-04-20 18:06:00,55.9,30.6,29.99,WNW,298,8.0,16.0,38,0.00,,,0.33,Wunderground v.1.15,2013-04-20 22:06:00,
2013-04-20 18:11:00,55.7,30.5,29.99,West,277,6.0,14.0,38,0.00,,,0.33,Wunderground v.1.15,2013-04-20 22:11:00,
2013-04-20 18:16:00,55.6,31.0,30.00,NW,312,9.0,14.0,39,0.00,,,0.33,Wunderground v.1.15,2013-04-20 22:16:00,
2013-04-20 18:21:00,55.5,31.5,30.00,West,259,5.0,8.0,40,0.00,,,0.33,Wunderground v.1.15,2013-04-20 22:21:00,
2013-04-20 18:26:00,55.1,31.2,30.00,NW,306,5.0,18.0,40,0.00,,,0.33,Wunderground v.1.15,2013-04-20 22:26:00,
2013-04-20 18:31:00,54.7,30.8,30.01,WNW,288,3.0,9.0,40,0.00,,,0.33,Wunderground v.1.15,2013-04-20 22:31:00,
2013-04-20 18:36:00,54.5,31.9,30.01,WNW,294,3.0,15.0,42,0.00,,,0.33,Wunderground v.1.15,2013-04-20 22:36:00,
2013-04-20 18:41:00,54.5,31.9,30.01,NW,324,9.0,12.0,42,0.00,,,0.33,Wunderground v.1.15,2013-04-20 22:41:00,
2013-04-20 18:46:00,54.2,31.0,30.02,West,269,9.0,24.0,41,0.00,,,0.33,Wunderground v.1.15,2013-04-20 22:46:00,
2013-04-20 18:51:00,53.9,30.1,30.03,WNW,298,17.0,24.0,40,0.00,,,0.33,Wunderground v.1.15,2013-04-20 22:51:00,
2013-04-20 18:56:00,53.4,29.7,30.03,West,280,13.0,24.0,40,0.00,,,0.33,Wunderground v.1.15,2013-04-20 22:56:00,
2013-04-20 19:01:00,53.1,30.0,30.03,WNW,300,4.0,13.0,41,0.00,,,0.33,Wunderground v.1.15,2013-04-20 23:01:00,
2013-04-20 19:06:00,52.9,30.4,30.04,WNW,298,5.0,14.0,42,0.00,,,0.33,Wunderground v.1.15,2013-04-20 23:06:00,
2013-04-20 19:11:00,52.7,30.8,30.04,West,280,5.0,11.0,43,0.00,,,0.33,Wunderground v.1.15,2013-04-20 23:11:00,
2013-04-20 19:16:00,52.5,30.0,30.05,NW,304,5.0,13.0,42,0.00,,,0.33,Wunderground v.1.15,2013-04-20 23:16:00,
2013-04-20 19:21:00,52.3,30.4,30.05,West,266,6.0,10.0,43,0.00,,,0.33,Wunderground v.1.15,2013-04-20 23:21:00,
2013-04-20 19:26:00,52.0,30.2,30.06,West,279,6.0,17.0,43,0.00,,,0.33,Wunderground v.1.15,2013-04-20 23:26:00,
2013-04-20 19:31:00,51.7,29.3,30.06,WNW,288,2.0,11.0,42,0.00,,,0.33,Wunderground v.1.15,2013-04-20 23:31:00,
2013-04-20 19:36:00,51.5,29.1,30.06,NW,318,9.0,15.0,42,0.00,,,0.33,Wunderground v.1.15,2013-04-20 23:36:00,
2013-04-20 19:41:00,51.2,28.9,30.07,WNW,298,4.0,7.0,42,0.00,,,0.33,Wunderground v.1.15,2013-04-20 23:41:00,
2013-04-20 19:46:00,50.9,29.2,30.07,West,263,3.0,11.0,43,0.00,,,0.33,Wunderground v.1.15,2013-04-20 23:46:00,
2013-04-20 19:51:00,50.6,28.9,30.07,WNW,295,2.0,5.0,43,0.00,,,0.33,Wunderground v.1.15,2013-04-20 23:51:00,
2013-04-20 19:56:00,50.3,28.6,30.08,WSW,255,8.0,11.0,43,0.00,,,0.33,Wunderground v.1.15,2013-04-20 23:56:00,
2013-04-20 20:01:00,50.1,28.4,30.08,WNW,292,5.0,12.0,43,0.00,,,0.33,Wunderground v.1.15,2013-04-21 00:01:00,
2013-04-20 20:06:00,50.0,28.9,30.09,WNW,296,4.0,12.0,44,0.00,,,0.33,Wunderground v.1.15,2013-04-21 00:06:00,
2013-04-20 20:11:00,49.9,28.3,30.09,NW,307,8.0,10.0,43,0.00,,,0.33,Wunderground v.1.15,2013-04-21 00:11:00,
2013-04-20 20:16:00,49.9,28.3,30.10,WNW,298,10.0,15.0,43,0.00,,,0.33,Wunderground v.1.15,2013-04-21 00:16:00,
2013-04-20 20:21:00,49.8,28.2,30.10,WNW,282,5.0,9.0,43,0.00,,,0.33,Wunderground v.1.15,2013-04-21 00:21:00,
2013-04-20 20:26:00,49.7,27.5,30.11,NW,304,5.0,16.0,42,0.00,,,0.33,Wunderground v.1.15,2013-04-21 00:26:00,
2013-04-20 20:31:00,49.7,27.5,30.11,NW,321,9.0,11.0,42,0.00,,,0.33,Wunderground v.1.15,2013-04-21 00:31:00,
2013-04-20 20:36:00,49.6,27.4,30.11,WNW,300,5.0,11.0,42,0.00,,,0.33,Wunderground v.1.15,2013-04-21 00:36:00,
2013-04-20 20:41:00,49.4,27.2,30.12,West,271,3.0,10.0,42,0.00,,,0.33,Wunderground v.1.15,2013-04-21 00:41:00,
2013-04-20 20:46:00,49.2,27.1,30.13,WNW,288,8.0,10.0,42,0.00,,,0.33,Wunderground v.1.15,2013-04-21 00:46:00,
2013-04-20 20:51:00,49.0,27.5,30.13,NW,305,1.0,5.0,43,0.00,,,0.33,Wunderground v.1.15,2013-04-21 00:51:00,
2013-04-20 20:56:00,48.8,28.4,30.13,NW,318,2.0,5.0,45,0.00,,,0.33,Wunderground v.1.15,2013-04-21 00:56:00,
2013-04-20 21:01:00,48.4,28.0,30.14,NW,315,3.0,5.0,45,0.00,,,0.33,Wunderground v.1.15,2013-04-21 01:01:00,
2013-04-20 21:06:00,48.0,27.6,30.14,NW,306,3.0,6.0,45,0.00,,,0.33,Wunderground v.1.15,2013-04-21 01:06:00,
2013-04-20 21:11:00,47.9,27.6,30.14,WNW,302,5.0,11.0,45,0.00,,,0.33,Wunderground v.1.15,2013-04-21 01:11:00,
2013-04-20 21:16:00,48.0,27.6,30.14,WNW,293,6.0,16.0,45,0.00,,,0.33,Wunderground v.1.15,2013-04-21 01:16:00,
2013-04-20 21:21:00,47.9,27.6,30.15,WNW,298,4.0,7.0,45,0.00,,,0.33,Wunderground v.1.15,2013-04-21 01:21:00,
2013-04-20 21:26:00,47.7,27.4,30.15,WNW,287,6.0,13.0,45,0.00,,,0.33,Wunderground v.1.15,2013-04-21 01:26:00,
2013-04-20 21:31:00,47.6,27.3,30.15,WNW,289,2.0,6.0,45,0.00,,,0.33,Wunderground v.1.15,2013-04-21 01:31:00,
2013-04-20 21:36:00,47.3,27.0,30.16,NW,308,3.0,11.0,45,0.00,,,0.33,Wunderground v.1.15,2013-04-21 01:36:00,
2013-04-20 21:41:00,47.2,27.5,30.16,WNW,292,5.0,6.0,46,0.00,,,0.33,Wunderground v.1.15,2013-04-21 01:41:00,
2013-04-20 21:46:00,47.1,26.8,30.17,NW,307,6.0,14.0,45,0.00,,,0.33,Wunderground v.1.15,2013-04-21 01:46:00,
2013-04-20 21:51:00,47.2,27.5,30.17,NW,311,10.0,11.0,46,0.00,,,0.33,Wunderground v.1.15,2013-04-21 01:51:00,
2013-04-20 21:56:00,47.0,27.3,30.17,WNW,293,7.0,13.0,46,0.00,,,0.33,Wunderground v.1.15,2013-04-21 01:56:00,
2013-04-20 22:01:00,46.7,27.0,30.17,WNW,284,9.0,14.0,46,0.00,,,0.33,Wunderground v.1.15,2013-04-21 02:01:00,
2013-04-20 22:06:00,46.6,26.9,30.17,WNW,286,9.0,16.0,46,0.00,,,0.33,Wunderground v.1.15,2013-04-21 02:06:00,
2013-04-20 22:11:00,46.5,26.8,30.17,WNW,295,13.0,13.0,46,0.00,,,0.33,Wunderground v.1.15,2013-04-21 02:11:00,
2013-04-20 22:16:00,46.4,26.7,30.18,WNW,283,5.0,14.0,46,0.00,,,0.33,Wunderground v.1.15,2013-04-21 02:16:00,
2013-04-20 22:21:00,46.2,26.5,30.18,NW,306,9.0,13.0,46,0.00,,,0.33,Wunderground v.1.15,2013-04-21 02:21:00,
2013-04-20 22:26:00,46.1,27.0,30.19,WNW,296,10.0,13.0,47,0.00,,,0.33,Wunderground v.1.15,2013-04-21 02:26:00,
2013-04-20 22:31:00,46.0,26.9,30.19,WNW,302,4.0,7.0,47,0.00,,,0.33,Wunderground v.1.15,2013-04-21 02:31:00,
2013-04-20 22:36:00,45.8,26.7,30.20,NW,308,1.0,9.0,47,0.00,,,0.33,Wunderground v.1.15,2013-04-21 02:36:00,
2013-04-20 22:41:00,45.6,26.5,30.20,NW,305,4.0,11.0,47,0.00,,,0.33,Wunderground v.1.15,2013-04-21 02:41:00,
2013-04-20 22:47:00,45.4,26.8,30.20,WSW,240,6.0,11.0,48,0.00,,,0.33,Wunderground v.1.15,2013-04-21 02:47:00,
2013-04-20 22:52:00,45.1,26.1,30.21,WNW,288,6.0,13.0,47,0.00,,,0.33,Wunderground v.1.15,2013-04-21 02:52:00,
2013-04-20 22:57:00,45.0,26.0,30.21,WNW,290,6.0,14.0,47,0.00,,,0.33,Wunderground v.1.15,2013-04-21 02:57:00,
2013-04-20 23:02:00,45.0,25.4,30.21,NW,322,11.0,15.0,46,0.00,,,0.33,Wunderground v.1.15,2013-04-21 03:02:00,
2013-04-20 23:07:00,44.9,24.3,30.21,NW,314,10.0,25.0,44,0.00,,,0.33,Wunderground v.1.15,2013-04-21 03:07:00,
2013-04-20 23:12:00,44.8,24.7,30.21,WNW,301,2.0,11.0,45,0.00,,,0.33,Wunderground v.1.15,2013-04-21 03:12:00,
2013-04-20 23:17:00,44.5,24.5,30.21,WNW,286,2.0,19.0,45,0.00,,,0.33,Wunderground v.1.15,2013-04-21 03:17:00,
2013-04-20 23:22:00,44.3,23.7,30.22,WNW,296,5.0,18.0,44,0.00,,,0.33,Wunderground v.1.15,2013-04-21 03:22:00,
2013-04-20 23:27:00,44.1,24.1,30.22,WNW,289,7.0,18.0,45,0.00,,,0.33,Wunderground v.1.15,2013-04-21 03:27:00,
2013-04-20 23:32:00,43.9,24.4,30.22,WNW,302,8.0,12.0,46,0.00,,,0.33,Wunderground v.1.15,2013-04-21 03:32:00,
2013-04-20 23:37:00,43.8,23.8,30.23,NW,318,12.0,15.0,45,0.00,,,0.33,Wunderground v.1.15,2013-04-21 03:37:00,
2013-04-20 23:42:00,43.7,23.7,30.23,WNW,298,12.0,15.0,45,0.00,,,0.33,Wunderground v.1.15,2013-04-21 03:42:00,
2013-04-20 23:47:00,43.4,24.5,30.24,WNW,297,5.0,18.0,47,0.00,,,0.33,Wunderground v.1.15,2013-04-21 03:47:00,
2013-04-20 23:52:00,43.1,24.2,30.25,WNW,290,10.0,13.0,47,0.00,,,0.33,Wunderground v.1.15,2013-04-21 03:52:00,
2013-04-20 23:57:00,42.8,23.4,30.25,WNW,294,11.0,20.0,46,0.00,,,0.33,Wunderground v.1.15,2013-04-21 03:57:00,